sensor_id;sensor_type;location;lat;lon;timestamp;temperature;humidity
38209;DHT22;24016;52.102;11.584;2023-02-01T00:01:41;4.40;99.90
38209;DHT22;24016;52.102;11.584;2023-02-01T00:04:07;4.40;99.90
38209;DHT22;24016;52.102;11.584;2023-02-01T00:06:33;4.30;99.90
38209;DHT22;24016;52.102;11.584;2023-02-01T00:08:58;4.40;99.90
38209;DHT22;24016;52.102;11.584;2023-02-01T00:11:24;4.30;99.90
38209;DHT22;24016;52.102;11.584;2023-02-01T00:13:50;4.40;99.90
38209;DHT22;24016;52.102;11.584;2023-02-01T00:16:18;4.40;99.90
38209;DHT22;24016;52.102;11.584;2023-02-01T00:18:45;4.40;99.90
38209;DHT22;24016;52.102;11.584;2023-02-01T00:21:12;4.40;99.90
38209;DHT22;24016;52.102;11.584;2023-02-01T00:23:37;4.40;99.90
38209;DHT22;24016;52.102;11.584;2023-02-01T00:26:05;4.40;99.90
38209;DHT22;24016;52.102;11.584;2023-02-01T00:28:31;4.40;99.90
38209;DHT22;24016;52.102;11.584;2023-02-01T00:31:02;4.50;99.90
38209;DHT22;24016;52.102;11.584;2023-02-01T00:33:29;4.50;99.90
38209;DHT22;24016;52.102;11.584;2023-02-01T00:35:59;4.50;99.90
38209;DHT22;24016;52.102;11.584;2023-02-01T00:38:25;4.50;99.90
38209;DHT22;24016;52.102;11.584;2023-02-01T00:40:51;4.60;99.90
38209;DHT22;24016;52.102;11.584;2023-02-01T00:43:17;4.50;99.90
38209;DHT22;24016;52.102;11.584;2023-02-01T00:45:42;4.50;99.90
38209;DHT22;24016;52.102;11.584;2023-02-01T00:48:07;4.50;99.90
38209;DHT22;24016;52.102;11.584;2023-02-01T00:50:33;4.40;99.90
38209;DHT22;24016;52.102;11.584;2023-02-01T00:52:58;4.50;99.90
38209;DHT22;24016;52.102;11.584;2023-02-01T00:55:25;4.50;99.90
38209;DHT22;24016;52.102;11.584;2023-02-01T00:57:50;4.50;99.90
38209;DHT22;24016;52.102;11.584;2023-02-01T01:00:16;4.50;99.90
38209;DHT22;24016;52.102;11.584;2023-02-01T01:02:42;4.40;99.90
38209;DHT22;24016;52.102;11.584;2023-02-01T01:05:08;4.40;99.90
38209;DHT22;24016;52.102;11.584;2023-02-01T01:07:33;4.40;99.90
38209;DHT22;24016;52.102;11.584;2023-02-01T01:09:59;4.40;99.90
38209;DHT22;24016;52.102;11.584;2023-02-01T01:12:25;4.40;99.90
38209;DHT22;24016;52.102;11.584;2023-02-01T01:14:51;4.40;99.90
38209;DHT22;24016;52.102;11.584;2023-02-01T01:17:16;4.40;99.90
38209;DHT22;24016;52.102;11.584;2023-02-01T01:19:42;4.40;99.90
38209;DHT22;24016;52.102;11.584;2023-02-01T01:22:07;4.30;99.90
38209;DHT22;24016;52.102;11.584;2023-02-01T01:24:33;4.20;99.90
38209;DHT22;24016;52.102;11.584;2023-02-01T01:26:58;4.30;99.90
38209;DHT22;24016;52.102;11.584;2023-02-01T01:29:24;4.30;99.90
38209;DHT22;24016;52.102;11.584;2023-02-01T01:31:49;4.30;99.90
38209;DHT22;24016;52.102;11.584;2023-02-01T01:34:15;4.30;99.90
38209;DHT22;24016;52.102;11.584;2023-02-01T01:36:40;4.20;99.90
38209;DHT22;24016;52.102;11.584;2023-02-01T01:39:06;4.20;99.90
38209;DHT22;24016;52.102;11.584;2023-02-01T01:41:33;4.20;99.90
38209;DHT22;24016;52.102;11.584;2023-02-01T01:44:00;4.20;99.90
38209;DHT22;24016;52.102;11.584;2023-02-01T01:46:32;4.20;99.90
38209;DHT22;24016;52.102;11.584;2023-02-01T01:49:22;4.20;99.90
38209;DHT22;24016;52.102;11.584;2023-02-01T01:51:55;4.20;99.90
38209;DHT22;24016;52.102;11.584;2023-02-01T01:54:25;4.20;99.90
38209;DHT22;24016;52.102;11.584;2023-02-01T01:56:55;4.10;99.90
38209;DHT22;24016;52.102;11.584;2023-02-01T01:59:23;4.20;99.90
38209;DHT22;24016;52.102;11.584;2023-02-01T02:01:49;4.20;99.90
38209;DHT22;24016;52.102;11.584;2023-02-01T02:04:15;4.20;99.90
38209;DHT22;24016;52.102;11.584;2023-02-01T02:07:17;4.10;99.90
38209;DHT22;24016;52.102;11.584;2023-02-01T02:09:45;4.10;99.90
38209;DHT22;24016;52.102;11.584;2023-02-01T02:12:10;4.10;99.90
38209;DHT22;24016;52.102;11.584;2023-02-01T02:14:36;4.10;99.90
38209;DHT22;24016;52.102;11.584;2023-02-01T02:22:31;4.10;99.90
38209;DHT22;24016;52.102;11.584;2023-02-01T02:35:57;4.20;99.90
38209;DHT22;24016;52.102;11.584;2023-02-01T02:38:57;4.20;99.90
38209;DHT22;24016;52.102;11.584;2023-02-01T02:42:02;4.30;99.90
38209;DHT22;24016;52.102;11.584;2023-02-01T02:45:06;4.20;99.90
38209;DHT22;24016;52.102;11.584;2023-02-01T02:49:09;4.30;99.90
38209;DHT22;24016;52.102;11.584;2023-02-01T02:54:08;4.30;99.90
38209;DHT22;24016;52.102;11.584;2023-02-01T02:56:56;4.30;99.90
38209;DHT22;24016;52.102;11.584;2023-02-01T02:59:43;4.30;99.90
38209;DHT22;24016;52.102;11.584;2023-02-01T03:02:28;4.30;99.90
38209;DHT22;24016;52.102;11.584;2023-02-01T03:05:13;4.30;99.90
38209;DHT22;24016;52.102;11.584;2023-02-01T03:07:57;4.30;99.90
38209;DHT22;24016;52.102;11.584;2023-02-01T03:10:30;4.30;99.90
38209;DHT22;24016;52.102;11.584;2023-02-01T03:13:05;4.20;99.90
38209;DHT22;24016;52.102;11.584;2023-02-01T03:18:44;4.20;99.90
38209;DHT22;24016;52.102;11.584;2023-02-01T03:21:17;4.20;99.90
38209;DHT22;24016;52.102;11.584;2023-02-01T03:23:47;4.20;99.90
38209;DHT22;24016;52.102;11.584;2023-02-01T03:26:15;4.20;99.90
38209;DHT22;24016;52.102;11.584;2023-02-01T03:28:47;4.20;99.90
38209;DHT22;24016;52.102;11.584;2023-02-01T03:31:14;4.20;99.90
38209;DHT22;24016;52.102;11.584;2023-02-01T03:33:40;4.30;99.90
38209;DHT22;24016;52.102;11.584;2023-02-01T03:38:32;4.30;99.90
38209;DHT22;24016;52.102;11.584;2023-02-01T03:44:01;4.30;99.90
38209;DHT22;24016;52.102;11.584;2023-02-01T03:46:51;4.30;99.90
38209;DHT22;24016;52.102;11.584;2023-02-01T03:49:23;4.30;99.90
38209;DHT22;24016;52.102;11.584;2023-02-01T03:51:51;4.20;99.90
38209;DHT22;24016;52.102;11.584;2023-02-01T03:54:19;4.10;99.90
38209;DHT22;24016;52.102;11.584;2023-02-01T03:56:46;4.10;99.90
38209;DHT22;24016;52.102;11.584;2023-02-01T03:59:13;4.10;99.90
38209;DHT22;24016;52.102;11.584;2023-02-01T04:01:40;4.10;99.90
38209;DHT22;24016;52.102;11.584;2023-02-01T04:04:06;4.00;99.90
38209;DHT22;24016;52.102;11.584;2023-02-01T04:06:31;4.10;99.90
38209;DHT22;24016;52.102;11.584;2023-02-01T04:08:57;4.00;99.90
38209;DHT22;24016;52.102;11.584;2023-02-01T04:11:23;4.10;99.90
38209;DHT22;24016;52.102;11.584;2023-02-01T04:13:48;4.10;99.90
38209;DHT22;24016;52.102;11.584;2023-02-01T04:16:14;4.10;99.90
38209;DHT22;24016;52.102;11.584;2023-02-01T04:18:39;4.00;99.90
38209;DHT22;24016;52.102;11.584;2023-02-01T04:21:05;4.00;99.90
38209;DHT22;24016;52.102;11.584;2023-02-01T04:23:30;4.00;99.90
38209;DHT22;24016;52.102;11.584;2023-02-01T04:26:04;3.90;99.90
38209;DHT22;24016;52.102;11.584;2023-02-01T04:28:30;3.90;99.90
38209;DHT22;24016;52.102;11.584;2023-02-01T04:30:56;3.90;99.90
38209;DHT22;24016;52.102;11.584;2023-02-01T04:33:21;3.90;99.90
38209;DHT22;24016;52.102;11.584;2023-02-01T04:35:47;4.00;99.90
38209;DHT22;24016;52.102;11.584;2023-02-01T04:38:13;4.10;99.90
38209;DHT22;24016;52.102;11.584;2023-02-01T04:40:38;4.10;99.90
38209;DHT22;24016;52.102;11.584;2023-02-01T04:43:04;4.00;99.90
38209;DHT22;24016;52.102;11.584;2023-02-01T04:45:30;4.00;99.90
38209;DHT22;24016;52.102;11.584;2023-02-01T04:47:55;3.90;99.90
38209;DHT22;24016;52.102;11.584;2023-02-01T04:50:21;3.90;99.90
38209;DHT22;24016;52.102;11.584;2023-02-01T04:52:46;3.90;99.90
38209;DHT22;24016;52.102;11.584;2023-02-01T04:55:12;3.90;99.90
38209;DHT22;24016;52.102;11.584;2023-02-01T04:57:39;3.90;99.90
38209;DHT22;24016;52.102;11.584;2023-02-01T05:00:06;3.90;99.90
38209;DHT22;24016;52.102;11.584;2023-02-01T05:02:32;3.80;99.90
38209;DHT22;24016;52.102;11.584;2023-02-01T05:04:58;3.70;99.90
38209;DHT22;24016;52.102;11.584;2023-02-01T05:07:23;3.70;99.90
38209;DHT22;24016;52.102;11.584;2023-02-01T05:09:49;3.70;99.90
38209;DHT22;24016;52.102;11.584;2023-02-01T05:12:14;3.70;99.90
38209;DHT22;24016;52.102;11.584;2023-02-01T05:14:58;3.80;99.90
38209;DHT22;24016;52.102;11.584;2023-02-01T05:17:24;3.70;99.90
38209;DHT22;24016;52.102;11.584;2023-02-01T05:19:49;3.70;99.90
38209;DHT22;24016;52.102;11.584;2023-02-01T05:22:15;3.70;99.90
38209;DHT22;24016;52.102;11.584;2023-02-01T05:24:40;3.70;99.90
38209;DHT22;24016;52.102;11.584;2023-02-01T05:27:06;3.70;99.90
38209;DHT22;24016;52.102;11.584;2023-02-01T05:29:31;3.70;99.90
38209;DHT22;24016;52.102;11.584;2023-02-01T05:31:57;3.70;99.90
38209;DHT22;24016;52.102;11.584;2023-02-01T05:34:22;3.70;99.90
38209;DHT22;24016;52.102;11.584;2023-02-01T05:36:48;3.60;99.90
38209;DHT22;24016;52.102;11.584;2023-02-01T05:39:14;3.60;99.90
38209;DHT22;24016;52.102;11.584;2023-02-01T05:41:39;3.60;99.90
38209;DHT22;24016;52.102;11.584;2023-02-01T05:44:05;3.60;99.90
38209;DHT22;24016;52.102;11.584;2023-02-01T05:46:33;3.50;99.90
38209;DHT22;24016;52.102;11.584;2023-02-01T05:48:59;3.50;99.90
38209;DHT22;24016;52.102;11.584;2023-02-01T05:51:24;3.50;99.90
38209;DHT22;24016;52.102;11.584;2023-02-01T05:53:50;3.50;99.90
38209;DHT22;24016;52.102;11.584;2023-02-01T05:56:16;3.50;99.90
38209;DHT22;24016;52.102;11.584;2023-02-01T05:58:41;3.50;99.90
38209;DHT22;24016;52.102;11.584;2023-02-01T06:01:07;3.50;99.90
38209;DHT22;24016;52.102;11.584;2023-02-01T06:03:32;3.60;99.90
38209;DHT22;24016;52.102;11.584;2023-02-01T06:05:58;3.70;99.90
38209;DHT22;24016;52.102;11.584;2023-02-01T06:08:23;3.80;99.90
38209;DHT22;24016;52.102;11.584;2023-02-01T06:11:06;3.70;99.90
38209;DHT22;24016;52.102;11.584;2023-02-01T06:13:32;3.70;99.90
38209;DHT22;24016;52.102;11.584;2023-02-01T06:15:58;3.70;99.90
38209;DHT22;24016;52.102;11.584;2023-02-01T06:18:24;3.70;99.90
38209;DHT22;24016;52.102;11.584;2023-02-01T06:20:58;3.60;99.90
38209;DHT22;24016;52.102;11.584;2023-02-01T06:23:26;3.70;99.90
38209;DHT22;24016;52.102;11.584;2023-02-01T06:25:52;3.70;99.90
38209;DHT22;24016;52.102;11.584;2023-02-01T06:28:18;3.60;99.90
38209;DHT22;24016;52.102;11.584;2023-02-01T06:30:44;3.70;99.90
38209;DHT22;24016;52.102;11.584;2023-02-01T06:33:12;3.60;99.90
38209;DHT22;24016;52.102;11.584;2023-02-01T06:35:41;3.60;99.90
38209;DHT22;24016;52.102;11.584;2023-02-01T06:38:07;3.60;99.90
38209;DHT22;24016;52.102;11.584;2023-02-01T06:40:33;3.60;99.90
38209;DHT22;24016;52.102;11.584;2023-02-01T06:42:59;3.50;99.90
38209;DHT22;24016;52.102;11.584;2023-02-01T06:45:24;3.40;99.90
38209;DHT22;24016;52.102;11.584;2023-02-01T06:47:50;3.50;99.90
38209;DHT22;24016;52.102;11.584;2023-02-01T06:50:16;3.40;99.90
38209;DHT22;24016;52.102;11.584;2023-02-01T06:52:41;3.30;99.90
38209;DHT22;24016;52.102;11.584;2023-02-01T06:55:07;3.30;99.90
38209;DHT22;24016;52.102;11.584;2023-02-01T06:57:33;3.40;99.90
38209;DHT22;24016;52.102;11.584;2023-02-01T06:59:59;3.40;99.90
38209;DHT22;24016;52.102;11.584;2023-02-01T07:02:25;3.40;99.90
38209;DHT22;24016;52.102;11.584;2023-02-01T07:04:52;3.50;99.90
38209;DHT22;24016;52.102;11.584;2023-02-01T07:07:17;3.50;99.90
38209;DHT22;24016;52.102;11.584;2023-02-01T07:09:46;3.50;99.90
38209;DHT22;24016;52.102;11.584;2023-02-01T07:12:12;3.50;99.90
38209;DHT22;24016;52.102;11.584;2023-02-01T07:14:37;3.50;99.90
38209;DHT22;24016;52.102;11.584;2023-02-01T07:17:03;3.60;99.90
38209;DHT22;24016;52.102;11.584;2023-02-01T07:19:29;3.60;99.90
38209;DHT22;24016;52.102;11.584;2023-02-01T07:21:54;3.70;99.90
38209;DHT22;24016;52.102;11.584;2023-02-01T07:24:20;3.80;99.90
38209;DHT22;24016;52.102;11.584;2023-02-01T07:26:45;3.90;99.90
38209;DHT22;24016;52.102;11.584;2023-02-01T07:29:13;3.90;99.90
38209;DHT22;24016;52.102;11.584;2023-02-01T07:31:38;4.00;99.90
38209;DHT22;24016;52.102;11.584;2023-02-01T07:34:04;4.00;99.90
38209;DHT22;24016;52.102;11.584;2023-02-01T07:36:30;4.00;99.90
38209;DHT22;24016;52.102;11.584;2023-02-01T07:38:55;3.90;99.90
38209;DHT22;24016;52.102;11.584;2023-02-01T07:41:22;3.80;99.90
38209;DHT22;24016;52.102;11.584;2023-02-01T07:43:47;3.50;99.90
38209;DHT22;24016;52.102;11.584;2023-02-01T07:46:13;3.20;99.90
38209;DHT22;24016;52.102;11.584;2023-02-01T07:48:40;3.10;99.90
38209;DHT22;24016;52.102;11.584;2023-02-01T07:51:09;3.00;99.90
38209;DHT22;24016;52.102;11.584;2023-02-01T07:53:35;3.00;99.90
38209;DHT22;24016;52.102;11.584;2023-02-01T07:56:01;3.10;99.90
38209;DHT22;24016;52.102;11.584;2023-02-01T07:58:27;3.10;99.90
38209;DHT22;24016;52.102;11.584;2023-02-01T08:00:54;3.10;99.90
38209;DHT22;24016;52.102;11.584;2023-02-01T08:03:38;3.20;99.90
38209;DHT22;24016;52.102;11.584;2023-02-01T08:06:04;3.20;99.90
38209;DHT22;24016;52.102;11.584;2023-02-01T08:08:30;3.30;99.90
38209;DHT22;24016;52.102;11.584;2023-02-01T08:10:59;3.30;99.90
38209;DHT22;24016;52.102;11.584;2023-02-01T08:13:25;3.40;99.90
38209;DHT22;24016;52.102;11.584;2023-02-01T08:15:51;3.30;99.90
38209;DHT22;24016;52.102;11.584;2023-02-01T08:18:16;3.40;99.90
38209;DHT22;24016;52.102;11.584;2023-02-01T08:20:44;3.40;99.90
38209;DHT22;24016;52.102;11.584;2023-02-01T08:23:11;3.40;99.90
38209;DHT22;24016;52.102;11.584;2023-02-01T08:25:37;3.40;99.90
38209;DHT22;24016;52.102;11.584;2023-02-01T08:28:03;3.30;99.90
38209;DHT22;24016;52.102;11.584;2023-02-01T08:30:28;3.30;99.90
38209;DHT22;24016;52.102;11.584;2023-02-01T08:32:54;3.30;99.90
38209;DHT22;24016;52.102;11.584;2023-02-01T08:35:19;3.30;99.90
38209;DHT22;24016;52.102;11.584;2023-02-01T08:37:46;3.30;99.90
38209;DHT22;24016;52.102;11.584;2023-02-01T08:40:13;3.30;99.90
38209;DHT22;24016;52.102;11.584;2023-02-01T08:42:39;3.30;99.90
38209;DHT22;24016;52.102;11.584;2023-02-01T08:45:23;3.30;99.90
38209;DHT22;24016;52.102;11.584;2023-02-01T08:47:52;3.30;99.90
38209;DHT22;24016;52.102;11.584;2023-02-01T08:50:19;3.30;99.90
38209;DHT22;24016;52.102;11.584;2023-02-01T08:52:45;3.40;99.90
38209;DHT22;24016;52.102;11.584;2023-02-01T08:55:11;3.30;99.90
38209;DHT22;24016;52.102;11.584;2023-02-01T08:57:37;3.40;99.90
38209;DHT22;24016;52.102;11.584;2023-02-01T09:00:06;3.30;99.90
38209;DHT22;24016;52.102;11.584;2023-02-01T09:02:32;3.30;99.90
38209;DHT22;24016;52.102;11.584;2023-02-01T09:04:58;3.30;99.90
38209;DHT22;24016;52.102;11.584;2023-02-01T09:07:23;3.20;99.90
38209;DHT22;24016;52.102;11.584;2023-02-01T09:09:49;3.30;99.90
38209;DHT22;24016;52.102;11.584;2023-02-01T09:12:14;3.30;99.90
38209;DHT22;24016;52.102;11.584;2023-02-01T09:14:41;3.40;99.90
38209;DHT22;24016;52.102;11.584;2023-02-01T09:17:06;3.50;99.90
38209;DHT22;24016;52.102;11.584;2023-02-01T09:19:32;3.60;99.90
38209;DHT22;24016;52.102;11.584;2023-02-01T09:21:58;3.60;99.90
38209;DHT22;24016;52.102;11.584;2023-02-01T09:24:23;3.60;99.90
38209;DHT22;24016;52.102;11.584;2023-02-01T09:26:49;3.70;99.90
38209;DHT22;24016;52.102;11.584;2023-02-01T09:29:14;3.80;99.90
38209;DHT22;24016;52.102;11.584;2023-02-01T09:31:41;3.80;99.90
38209;DHT22;24016;52.102;11.584;2023-02-01T09:34:07;3.70;99.90
38209;DHT22;24016;52.102;11.584;2023-02-01T09:36:34;3.60;99.90
38209;DHT22;24016;52.102;11.584;2023-02-01T09:39:01;3.50;99.90
38209;DHT22;24016;52.102;11.584;2023-02-01T09:44:07;3.50;99.90
38209;DHT22;24016;52.102;11.584;2023-02-01T09:46:34;3.50;99.90
38209;DHT22;24016;52.102;11.584;2023-02-01T09:49:04;3.40;99.90
38209;DHT22;24016;52.102;11.584;2023-02-01T09:51:40;3.30;99.90
38209;DHT22;24016;52.102;11.584;2023-02-01T09:54:29;3.40;99.90
38209;DHT22;24016;52.102;11.584;2023-02-01T09:57:11;3.70;99.90
38209;DHT22;24016;52.102;11.584;2023-02-01T09:59:44;3.80;99.90
38209;DHT22;24016;52.102;11.584;2023-02-01T10:02:17;3.80;99.90
38209;DHT22;24016;52.102;11.584;2023-02-01T10:04:44;3.80;99.90
38209;DHT22;24016;52.102;11.584;2023-02-01T10:09:58;3.80;99.90
38209;DHT22;24016;52.102;11.584;2023-02-01T10:12:32;3.80;99.90
38209;DHT22;24016;52.102;11.584;2023-02-01T10:20:56;3.80;99.90
38209;DHT22;24016;52.102;11.584;2023-02-01T10:26:30;4.10;99.90
38209;DHT22;24016;52.102;11.584;2023-02-01T10:29:01;4.00;99.90
38209;DHT22;24016;52.102;11.584;2023-02-01T10:31:30;3.70;99.90
38209;DHT22;24016;52.102;11.584;2023-02-01T10:33:59;3.60;99.90
38209;DHT22;24016;52.102;11.584;2023-02-01T10:36:35;3.50;99.90
38209;DHT22;24016;52.102;11.584;2023-02-01T10:39:03;3.50;99.90
38209;DHT22;24016;52.102;11.584;2023-02-01T10:41:37;3.40;99.90
38209;DHT22;24016;52.102;11.584;2023-02-01T10:44:07;3.40;99.90
38209;DHT22;24016;52.102;11.584;2023-02-01T10:46:35;3.50;99.90
38209;DHT22;24016;52.102;11.584;2023-02-01T10:49:03;3.60;99.90
38209;DHT22;24016;52.102;11.584;2023-02-01T10:51:42;3.80;99.90
38209;DHT22;24016;52.102;11.584;2023-02-01T10:54:31;3.90;99.90
38209;DHT22;24016;52.102;11.584;2023-02-01T10:56:57;3.90;99.90
38209;DHT22;24016;52.102;11.584;2023-02-01T10:59:29;4.10;99.90
38209;DHT22;24016;52.102;11.584;2023-02-01T11:02:00;4.20;99.90
38209;DHT22;24016;52.102;11.584;2023-02-01T11:04:28;4.30;99.90
38209;DHT22;24016;52.102;11.584;2023-02-01T11:07:24;4.30;99.90
38209;DHT22;24016;52.102;11.584;2023-02-01T11:09:52;4.40;99.90
38209;DHT22;24016;52.102;11.584;2023-02-01T11:12:38;4.50;99.90
38209;DHT22;24016;52.102;11.584;2023-02-01T11:15:21;4.60;99.90
38209;DHT22;24016;52.102;11.584;2023-02-01T11:17:49;4.80;99.90
38209;DHT22;24016;52.102;11.584;2023-02-01T11:20:40;4.90;99.90
38209;DHT22;24016;52.102;11.584;2023-02-01T11:23:14;4.80;99.90
38209;DHT22;24016;52.102;11.584;2023-02-01T11:25:51;4.80;99.90
38209;DHT22;24016;52.102;11.584;2023-02-01T11:28:18;4.80;99.90
38209;DHT22;24016;52.102;11.584;2023-02-01T11:30:47;4.80;99.90
38209;DHT22;24016;52.102;11.584;2023-02-01T11:33:16;4.90;99.90
38209;DHT22;24016;52.102;11.584;2023-02-01T11:35:43;4.90;99.90
38209;DHT22;24016;52.102;11.584;2023-02-01T11:38:51;5.20;99.90
38209;DHT22;24016;52.102;11.584;2023-02-01T11:41:24;5.40;99.90
38209;DHT22;24016;52.102;11.584;2023-02-01T11:43:55;5.50;99.90
38209;DHT22;24016;52.102;11.584;2023-02-01T11:46:22;5.60;99.90
38209;DHT22;24016;52.102;11.584;2023-02-01T11:48:50;5.80;99.90
38209;DHT22;24016;52.102;11.584;2023-02-01T11:51:27;5.90;99.90
38209;DHT22;24016;52.102;11.584;2023-02-01T11:57:07;5.90;99.90
38209;DHT22;24016;52.102;11.584;2023-02-01T12:00:10;6.00;99.90
38209;DHT22;24016;52.102;11.584;2023-02-01T12:08:28;6.10;99.90
38209;DHT22;24016;52.102;11.584;2023-02-01T12:14:01;6.00;99.90
38209;DHT22;24016;52.102;11.584;2023-02-01T12:22:51;6.00;99.90
38209;DHT22;24016;52.102;11.584;2023-02-01T12:28:34;6.00;99.90
38209;DHT22;24016;52.102;11.584;2023-02-01T12:31:25;6.20;99.90
38209;DHT22;24016;52.102;11.584;2023-02-01T12:34:09;6.30;99.90
38209;DHT22;24016;52.102;11.584;2023-02-01T12:36:50;6.70;99.90
38209;DHT22;24016;52.102;11.584;2023-02-01T12:39:32;7.10;99.90
38209;DHT22;24016;52.102;11.584;2023-02-01T12:42:26;7.30;99.90
38209;DHT22;24016;52.102;11.584;2023-02-01T12:45:02;7.30;99.90
38209;DHT22;24016;52.102;11.584;2023-02-01T12:48:35;7.20;99.90
38209;DHT22;24016;52.102;11.584;2023-02-01T12:50:58;7.20;99.90
38209;DHT22;24016;52.102;11.584;2023-02-01T12:56:16;7.50;99.90
38209;DHT22;24016;52.102;11.584;2023-02-01T12:58:56;7.30;99.90
38209;DHT22;24016;52.102;11.584;2023-02-01T13:01:54;7.00;99.90
38209;DHT22;24016;52.102;11.584;2023-02-01T13:04:59;6.70;99.90
38209;DHT22;24016;52.102;11.584;2023-02-01T13:07:37;6.60;99.90
38209;DHT22;24016;52.102;11.584;2023-02-01T13:13:11;6.30;99.90
38209;DHT22;24016;52.102;11.584;2023-02-01T13:16:28;6.30;99.90
38209;DHT22;24016;52.102;11.584;2023-02-01T13:18:43;6.50;99.90
38209;DHT22;24016;52.102;11.584;2023-02-01T13:21:18;6.50;99.90
38209;DHT22;24016;52.102;11.584;2023-02-01T13:23:47;6.30;99.90
38209;DHT22;24016;52.102;11.584;2023-02-01T13:26:14;6.20;99.90
38209;DHT22;24016;52.102;11.584;2023-02-01T13:28:44;6.10;99.90
38209;DHT22;24016;52.102;11.584;2023-02-01T13:31:29;5.90;99.90
38209;DHT22;24016;52.102;11.584;2023-02-01T13:34:25;5.70;99.90
38209;DHT22;24016;52.102;11.584;2023-02-01T13:37:02;5.40;99.90
38209;DHT22;24016;52.102;11.584;2023-02-01T13:39:42;5.10;99.90
38209;DHT22;24016;52.102;11.584;2023-02-01T13:42:28;4.90;99.90
38209;DHT22;24016;52.102;11.584;2023-02-01T13:45:00;4.90;99.90
38209;DHT22;24016;52.102;11.584;2023-02-01T13:47:29;4.90;99.90
38209;DHT22;24016;52.102;11.584;2023-02-01T13:50:04;5.00;99.90
38209;DHT22;24016;52.102;11.584;2023-02-01T13:52:43;5.10;99.90
38209;DHT22;24016;52.102;11.584;2023-02-01T13:57:48;5.10;99.90
38209;DHT22;24016;52.102;11.584;2023-02-01T14:00:24;5.10;99.90
38209;DHT22;24016;52.102;11.584;2023-02-01T14:08:14;4.90;99.90
38209;DHT22;24016;52.102;11.584;2023-02-01T14:10:57;4.90;99.90
38209;DHT22;24016;52.102;11.584;2023-02-01T14:21:32;5.00;99.90
38209;DHT22;24016;52.102;11.584;2023-02-01T14:24:05;5.00;99.90
38209;DHT22;24016;52.102;11.584;2023-02-01T14:31:47;4.80;99.90
38209;DHT22;24016;52.102;11.584;2023-02-01T14:35:05;4.80;99.90
38209;DHT22;24016;52.102;11.584;2023-02-01T14:47:55;3.20;99.90
38209;DHT22;24016;52.102;11.584;2023-02-01T14:50:42;3.00;99.90
38209;DHT22;24016;52.102;11.584;2023-02-01T14:55:53;2.90;99.90
38209;DHT22;24016;52.102;11.584;2023-02-01T15:01:03;3.00;99.90
38209;DHT22;24016;52.102;11.584;2023-02-01T15:06:32;3.10;99.90
38209;DHT22;24016;52.102;11.584;2023-02-01T15:09:34;3.10;99.90
38209;DHT22;24016;52.102;11.584;2023-02-01T15:14:42;3.10;99.90
38209;DHT22;24016;52.102;11.584;2023-02-01T15:17:24;3.00;99.90
38209;DHT22;24016;52.102;11.584;2023-02-01T15:22:20;3.10;99.90
38209;DHT22;24016;52.102;11.584;2023-02-01T15:24:55;3.10;99.90
38209;DHT22;24016;52.102;11.584;2023-02-01T15:27:21;3.10;99.90
38209;DHT22;24016;52.102;11.584;2023-02-01T15:29:47;3.10;99.90
38209;DHT22;24016;52.102;11.584;2023-02-01T15:32:46;3.00;99.90
38209;DHT22;24016;52.102;11.584;2023-02-01T15:35:32;2.90;99.90
38209;DHT22;24016;52.102;11.584;2023-02-01T15:40:59;2.90;99.90
38209;DHT22;24016;52.102;11.584;2023-02-01T15:43:28;2.80;99.90
38209;DHT22;24016;52.102;11.584;2023-02-01T15:45:59;2.80;99.90
38209;DHT22;24016;52.102;11.584;2023-02-01T15:48:31;2.80;99.90
38209;DHT22;24016;52.102;11.584;2023-02-01T15:50:58;2.80;99.90
38209;DHT22;24016;52.102;11.584;2023-02-01T15:53:24;2.80;99.90
38209;DHT22;24016;52.102;11.584;2023-02-01T15:55:55;2.80;99.90
38209;DHT22;24016;52.102;11.584;2023-02-01T15:58:23;2.80;99.90
38209;DHT22;24016;52.102;11.584;2023-02-01T16:01:03;2.80;99.90
38209;DHT22;24016;52.102;11.584;2023-02-01T16:04:01;2.80;99.90
38209;DHT22;24016;52.102;11.584;2023-02-01T16:09:12;2.70;99.90
38209;DHT22;24016;52.102;11.584;2023-02-01T16:14:18;2.60;99.90
38209;DHT22;24016;52.102;11.584;2023-02-01T16:16:44;2.60;99.90
38209;DHT22;24016;52.102;11.584;2023-02-01T16:19:09;2.60;99.90
38209;DHT22;24016;52.102;11.584;2023-02-01T16:21:35;2.70;99.90
38209;DHT22;24016;52.102;11.584;2023-02-01T16:24:00;2.70;99.90
38209;DHT22;24016;52.102;11.584;2023-02-01T16:26:30;2.70;99.90
38209;DHT22;24016;52.102;11.584;2023-02-01T16:28:56;2.60;99.90
38209;DHT22;24016;52.102;11.584;2023-02-01T16:31:28;2.70;99.90
38209;DHT22;24016;52.102;11.584;2023-02-01T16:33:54;2.80;99.90
38209;DHT22;24016;52.102;11.584;2023-02-01T16:36:21;2.80;99.90
38209;DHT22;24016;52.102;11.584;2023-02-01T16:38:47;2.90;99.90
38209;DHT22;24016;52.102;11.584;2023-02-01T16:41:16;2.90;99.90
38209;DHT22;24016;52.102;11.584;2023-02-01T16:43:42;2.90;99.90
38209;DHT22;24016;52.102;11.584;2023-02-01T16:46:14;3.00;99.90
38209;DHT22;24016;52.102;11.584;2023-02-01T16:48:41;3.00;99.90
38209;DHT22;24016;52.102;11.584;2023-02-01T16:51:13;2.90;99.90
38209;DHT22;24016;52.102;11.584;2023-02-01T16:53:39;3.00;99.90
38209;DHT22;24016;52.102;11.584;2023-02-01T16:56:23;3.00;99.90
38209;DHT22;24016;52.102;11.584;2023-02-01T16:58:50;2.90;99.90
38209;DHT22;24016;52.102;11.584;2023-02-01T17:01:17;2.90;99.90
38209;DHT22;24016;52.102;11.584;2023-02-01T17:03:44;2.80;99.90
38209;DHT22;24016;52.102;11.584;2023-02-01T17:06:12;2.90;99.90
38209;DHT22;24016;52.102;11.584;2023-02-01T17:08:43;2.90;99.90
38209;DHT22;24016;52.102;11.584;2023-02-01T17:11:11;2.80;99.90
38209;DHT22;24016;52.102;11.584;2023-02-01T17:13:37;2.90;99.90
38209;DHT22;24016;52.102;11.584;2023-02-01T17:16:06;2.90;99.90
38209;DHT22;24016;52.102;11.584;2023-02-01T17:18:34;2.90;99.90
38209;DHT22;24016;52.102;11.584;2023-02-01T17:21:01;2.90;99.90
38209;DHT22;24016;52.102;11.584;2023-02-01T17:23:28;2.90;99.90
38209;DHT22;24016;52.102;11.584;2023-02-01T17:25:55;3.00;99.90
38209;DHT22;24016;52.102;11.584;2023-02-01T17:28:21;3.00;99.90
38209;DHT22;24016;52.102;11.584;2023-02-01T17:30:47;2.90;99.90
38209;DHT22;24016;52.102;11.584;2023-02-01T17:33:25;2.90;99.90
38209;DHT22;24016;52.102;11.584;2023-02-01T17:35:54;2.90;99.90
38209;DHT22;24016;52.102;11.584;2023-02-01T17:38:20;2.80;99.90
38209;DHT22;24016;52.102;11.584;2023-02-01T17:40:45;2.80;99.90
38209;DHT22;24016;52.102;11.584;2023-02-01T17:43:15;2.70;99.90
38209;DHT22;24016;52.102;11.584;2023-02-01T17:45:50;2.70;99.90
38209;DHT22;24016;52.102;11.584;2023-02-01T17:48:20;2.70;99.90
38209;DHT22;24016;52.102;11.584;2023-02-01T17:50:50;2.70;99.90
38209;DHT22;24016;52.102;11.584;2023-02-01T17:53:26;2.60;99.90
38209;DHT22;24016;52.102;11.584;2023-02-01T17:55:52;2.70;99.90